createdAt,value
2022-11-02T00:01:44.181Z,85.78
2022-11-02T00:04:12.501Z,82.10
2022-11-02T00:06:41.590Z,79.47
2022-11-02T00:09:09.398Z,69.18
2022-11-02T00:11:38.312Z,68.47
2022-11-02T00:14:06.687Z,71.97
2022-11-02T00:16:37.191Z,70.00
2022-11-02T00:19:05.368Z,73.53
2022-11-02T00:21:33.952Z,70.60
2022-11-02T00:24:02.693Z,69.10
2022-11-02T00:26:32.518Z,65.18
2022-11-02T00:29:00.250Z,81.57
2022-11-02T00:31:28.218Z,67.65
2022-11-02T00:33:56.582Z,82.60
2022-11-02T00:36:28.331Z,73.47
2022-11-02T00:38:55.991Z,68.90
2022-11-02T00:41:23.966Z,61.53
2022-11-02T00:43:52.051Z,87.35
2022-11-02T00:46:20.476Z,61.80
2022-11-02T00:48:48.350Z,57.85
2022-11-02T00:51:17.116Z,67.22
2022-11-02T00:53:46.671Z,61.25
2022-11-02T00:56:15.321Z,62.03
2022-11-02T00:58:45.924Z,56.88
2022-11-02T01:01:14.101Z,62.92
2022-11-02T01:03:42.744Z,58.13
2022-11-02T01:06:13.205Z,66.68
2022-11-02T01:08:41.241Z,63.47
2022-11-02T01:11:17.883Z,76.47
2022-11-02T01:13:46.435Z,69.25
2022-11-02T01:16:14.958Z,71.90
2022-11-02T01:18:43.998Z,71.50
2022-11-02T01:21:12.129Z,78.57
2022-11-02T01:23:40.524Z,73.43
2022-11-02T01:26:10.311Z,72.80
2022-11-02T01:28:39.523Z,67.82
2022-11-02T01:31:08.575Z,68.20
2022-11-02T01:33:37.129Z,76.20
2022-11-02T01:36:06.479Z,69.78
2022-11-02T01:38:34.496Z,77.03
2022-11-02T01:41:02.556Z,69.40
2022-11-02T01:43:34.077Z,66.55
2022-11-02T01:46:10.893Z,66.70
2022-11-02T01:48:43.379Z,69.22
2022-11-02T01:51:29.968Z,74.75
2022-11-02T01:54:05.632Z,77.80
2022-11-02T01:56:35.299Z,71.30
2022-11-02T01:59:06.768Z,74.43
2022-11-02T02:01:34.954Z,71.68
2022-11-02T02:04:03.678Z,68.43
2022-11-02T02:06:38.653Z,72.22
2022-11-02T02:09:08.272Z,75.20
2022-11-02T02:11:39.003Z,99.43
2022-11-02T02:14:13.358Z,76.15
2022-11-02T02:17:07.624Z,92.25
2022-11-02T02:19:51.526Z,87.68
2022-11-02T02:25:38.397Z,80.80
2022-11-02T02:28:31.194Z,90.97
2022-11-02T02:34:21.430Z,77.90
2022-11-02T02:36:52.469Z,79.55
2022-11-02T02:39:35.077Z,91.85
2022-11-02T02:42:13.306Z,93.82
2022-11-02T02:44:45.884Z,114.53
2022-11-02T02:47:19.573Z,84.93
2022-11-02T02:49:58.133Z,88.70
2022-11-02T02:52:29.217Z,89.85
2022-11-02T02:55:00.235Z,84.88
2022-11-02T02:57:31.810Z,86.85
2022-11-02T03:00:00.240Z,99.82
2022-11-02T03:02:36.525Z,101.55
2022-11-02T03:05:26.470Z,94.80
2022-11-02T03:07:56.799Z,95.15
2022-11-02T03:11:02.237Z,93.45
2022-11-02T03:13:33.546Z,101.88
2022-11-02T03:16:40.111Z,98.30
2022-11-02T03:19:42.251Z,117.47
2022-11-02T03:25:15.612Z,101.80
2022-11-02T03:27:55.575Z,108.03
2022-11-02T03:30:26.632Z,102.68
2022-11-02T03:33:07.512Z,97.88
2022-11-02T03:35:56.955Z,96.63
2022-11-02T03:38:45.334Z,110.40
2022-11-02T03:41:17.179Z,86.70
2022-11-02T03:43:48.940Z,91.43
2022-11-02T03:46:19.470Z,86.55
2022-11-02T03:48:53.429Z,106.15
2022-11-02T03:51:24.169Z,95.53
2022-11-02T03:54:01.649Z,107.38
2022-11-02T03:56:48.332Z,83.65
2022-11-02T03:59:17.023Z,101.78
2022-11-02T04:01:50.792Z,88.13
2022-11-02T04:04:20.702Z,86.75
2022-11-02T04:06:49.144Z,103.15
2022-11-02T04:09:19.171Z,77.93
2022-11-02T04:12:05.759Z,98.25
2022-11-02T04:14:43.600Z,91.32
2022-11-02T04:17:32.848Z,83.35
2022-11-02T04:20:03.621Z,93.10
2022-11-02T04:22:50.149Z,90.70
2022-11-02T04:25:20.235Z,81.90
2022-11-02T04:28:08.643Z,127.30
2022-11-02T04:30:45.534Z,89.00
2022-11-02T04:33:32.413Z,88.60
2022-11-02T04:36:12.053Z,108.25
2022-11-02T04:38:41.589Z,95.15
2022-11-02T04:41:44.933Z,105.43
2022-11-02T04:44:29.535Z,107.35
2022-11-02T04:47:04.492Z,137.43
2022-11-02T04:49:33.998Z,90.05
2022-11-02T04:52:02.332Z,93.63
2022-11-02T04:54:32.073Z,99.43
2022-11-02T04:57:03.896Z,99.22
2022-11-02T04:59:33.810Z,110.63
2022-11-02T05:02:01.992Z,101.22
2022-11-02T05:04:30.315Z,99.65
2022-11-02T05:07:01.785Z,108.35
2022-11-02T05:09:35.090Z,111.30
2022-11-02T05:12:05.542Z,124.35
2022-11-02T05:14:35.083Z,137.10
2022-11-02T05:17:03.808Z,107.60
2022-11-02T05:19:32.318Z,126.50
2022-11-02T05:22:01.969Z,121.60
2022-11-02T05:24:30.617Z,118.82
2022-11-02T05:27:00.598Z,125.55
2022-11-02T05:29:28.604Z,114.47
2022-11-02T05:31:57.698Z,117.78
2022-11-02T05:34:25.483Z,125.20
2022-11-02T05:36:54.345Z,127.15
2022-11-02T05:39:22.060Z,140.18
2022-11-02T05:41:50.045Z,117.90
2022-11-02T05:44:17.962Z,118.35
2022-11-02T05:46:46.463Z,115.57
2022-11-02T05:49:14.099Z,110.82
2022-11-02T05:51:44.105Z,110.28
2022-11-02T05:54:11.748Z,129.23
2022-11-02T05:56:39.750Z,134.77
2022-11-02T05:59:07.638Z,130.15
2022-11-02T06:01:35.700Z,133.13
2022-11-02T06:04:03.593Z,134.60
2022-11-02T06:06:32.231Z,132.68
2022-11-02T06:09:05.795Z,122.85
2022-11-02T06:11:35.153Z,112.75
2022-11-02T06:14:03.993Z,112.57
2022-11-02T06:16:32.230Z,105.18
2022-11-02T06:18:59.916Z,105.20
2022-11-02T06:21:28.364Z,98.63
2022-11-02T06:23:56.051Z,92.28
2022-11-02T06:26:24.382Z,86.13
2022-11-02T06:28:52.067Z,78.32
2022-11-02T06:31:20.246Z,71.85
2022-11-02T06:33:48.444Z,69.80
2022-11-02T06:36:16.468Z,74.55
2022-11-02T06:38:46.224Z,72.03
2022-11-02T06:41:14.312Z,65.07
2022-11-02T06:43:45.869Z,72.90
2022-11-02T06:46:15.886Z,67.45
2022-11-02T06:48:46.565Z,67.20
2022-11-02T06:51:14.799Z,58.78
2022-11-02T06:53:42.454Z,63.15
2022-11-02T06:56:12.778Z,64.07
2022-11-02T06:58:43.116Z,68.53
2022-11-02T07:01:11.442Z,66.03
2022-11-02T07:03:39.190Z,60.85
2022-11-02T07:06:12.805Z,70.20
2022-11-02T07:08:42.700Z,64.20
2022-11-02T07:11:15.419Z,58.60
2022-11-02T07:13:43.362Z,74.18
2022-11-02T07:16:11.639Z,62.17
2022-11-02T07:18:39.311Z,58.90
2022-11-02T07:21:07.941Z,56.08
2022-11-02T07:23:35.792Z,50.47
2022-11-02T07:26:05.313Z,56.28
2022-11-02T07:28:33.070Z,58.00
2022-11-02T07:31:01.413Z,53.95
2022-11-02T07:33:29.139Z,55.53
2022-11-02T07:35:57.226Z,56.20
2022-11-02T07:38:24.933Z,49.58
2022-11-02T07:40:52.879Z,48.67
2022-11-02T07:43:20.626Z,62.53
2022-11-02T07:46:07.165Z,52.33
2022-11-02T07:48:36.147Z,59.22
2022-11-02T07:51:04.363Z,56.65
2022-11-02T07:53:32.139Z,54.47
2022-11-02T07:56:04.605Z,57.15
2022-11-02T07:58:32.870Z,56.67
2022-11-02T08:01:01.737Z,54.00
2022-11-02T08:03:30.565Z,54.72
2022-11-02T08:06:03.185Z,52.38
2022-11-02T08:08:34.134Z,49.20
2022-11-02T08:11:08.098Z,101.30
2022-11-02T08:13:37.316Z,62.65
2022-11-02T08:16:05.706Z,74.57
2022-11-02T08:18:54.329Z,73.65
2022-11-02T08:21:22.179Z,54.97
2022-11-02T08:23:53.547Z,49.22
2022-11-02T08:26:23.974Z,52.40
2022-11-02T08:28:53.413Z,50.97
2022-11-02T08:31:21.171Z,54.75
2022-11-02T08:33:49.752Z,53.55
2022-11-02T08:36:17.483Z,54.90
2022-11-02T08:38:45.739Z,49.58
2022-11-02T08:41:14.902Z,40.35
2022-11-02T08:43:43.136Z,65.68
2022-11-02T08:46:15.763Z,40.10
2022-11-02T08:48:45.477Z,39.53
2022-11-02T08:51:13.450Z,42.72
2022-11-02T08:53:48.666Z,44.70
2022-11-02T08:56:19.436Z,51.53
2022-11-02T08:58:47.615Z,35.78
2022-11-02T09:01:15.488Z,38.28
2022-11-02T09:03:43.585Z,33.85
2022-11-02T09:06:11.337Z,35.08
2022-11-02T09:08:39.497Z,40.72
2022-11-02T09:11:07.413Z,35.65
2022-11-02T09:13:35.882Z,34.53
2022-11-02T09:16:03.653Z,35.92
2022-11-02T09:18:32.130Z,34.67
2022-11-02T09:21:04.203Z,27.48
2022-11-02T09:23:32.765Z,30.88
2022-11-02T09:26:00.929Z,34.97
2022-11-02T09:28:29.006Z,29.45
2022-11-02T09:30:57.158Z,34.15
2022-11-02T09:33:25.682Z,32.08
2022-11-02T09:35:53.387Z,34.88
2022-11-02T09:38:24.395Z,33.20
2022-11-02T09:41:03.403Z,28.15
2022-11-02T09:43:37.601Z,33.40
2022-11-02T09:46:12.866Z,26.80
2022-11-02T09:48:53.034Z,24.67
2022-11-02T09:51:33.938Z,26.48
2022-11-02T09:54:18.184Z,28.45
2022-11-02T09:56:47.370Z,35.50
2022-11-02T09:59:19.014Z,33.15
2022-11-02T10:01:50.310Z,35.85
2022-11-02T10:04:58.927Z,33.70
2022-11-02T10:07:38.732Z,30.40
2022-11-02T10:10:23.607Z,26.57
2022-11-02T10:12:59.262Z,25.77
2022-11-02T10:15:41.467Z,27.25
2022-11-02T10:18:42.519Z,26.80
2022-11-02T10:21:16.643Z,28.88
2022-11-02T10:23:55.199Z,24.95
2022-11-02T10:26:34.438Z,24.42
2022-11-02T10:29:23.867Z,30.35
2022-11-02T10:31:51.928Z,24.98
2022-11-02T10:34:19.587Z,25.80
2022-11-02T10:36:54.263Z,25.75
2022-11-02T10:39:57.738Z,25.17
2022-11-02T10:42:45.663Z,26.27
2022-11-02T10:45:19.719Z,31.70
2022-11-02T10:48:25.121Z,22.98
2022-11-02T10:50:59.425Z,39.70
2022-11-02T10:53:40.644Z,64.38
2022-11-02T10:56:15.247Z,50.78
2022-11-02T10:59:16.047Z,49.75
2022-11-02T11:02:04.707Z,17.67
2022-11-02T11:04:34.297Z,24.20
2022-11-02T11:07:18.166Z,22.00
2022-11-02T11:09:48.611Z,27.40
2022-11-02T11:12:22.595Z,22.00
2022-11-02T11:20:39.598Z,36.45
2022-11-02T11:23:26.702Z,28.20
2022-11-02T11:26:01.411Z,31.55
2022-11-02T11:28:47.851Z,28.15
2022-11-02T11:31:19.264Z,27.98
2022-11-02T11:33:52.319Z,23.67
2022-11-02T11:36:40.716Z,24.10
2022-11-02T11:39:28.581Z,26.38
2022-11-02T11:41:57.883Z,24.30
2022-11-02T11:44:26.244Z,20.98
2022-11-02T11:46:58.093Z,20.02
2022-11-02T11:50:03.032Z,30.15
2022-11-02T11:52:32.129Z,20.48
2022-11-02T11:55:02.984Z,19.98
2022-11-02T12:00:30.717Z,26.05
2022-11-02T12:03:08.845Z,24.25
2022-11-02T12:06:07.522Z,17.85
2022-11-02T12:08:35.785Z,18.55
2022-11-02T12:11:29.024Z,18.27
2022-11-02T12:14:16.333Z,20.30
2022-11-02T12:17:05.923Z,21.50
2022-11-02T12:19:49.410Z,18.60
2022-11-02T12:22:23.469Z,59.33
2022-11-02T12:25:06.971Z,35.33
2022-11-02T12:28:03.844Z,29.65
2022-11-02T12:30:47.317Z,554.17
2022-11-02T12:33:43.920Z,231.77
2022-11-02T12:37:31.252Z,52.33
2022-11-02T12:40:02.080Z,50.53
2022-11-02T12:42:42.203Z,24.73
2022-11-02T12:45:34.668Z,28.13
2022-11-02T12:48:13.042Z,30.70
2022-11-02T12:50:55.045Z,32.53
2022-11-02T12:53:37.507Z,28.15
2022-11-02T12:56:13.024Z,40.42
2022-11-02T12:58:42.427Z,29.45
2022-11-02T13:01:19.680Z,27.33
2022-11-02T13:04:06.025Z,25.35
2022-11-02T13:06:43.719Z,37.08
2022-11-02T13:09:29.050Z,28.83
2022-11-02T13:12:07.783Z,25.50
2022-11-02T13:14:49.366Z,33.63
2022-11-02T13:17:20.331Z,26.92
2022-11-02T13:20:02.387Z,159.02
2022-11-02T13:22:41.290Z,81.32
2022-11-02T13:25:43.244Z,41.50
2022-11-02T13:28:18.527Z,32.90
2022-11-02T13:30:48.018Z,33.13
2022-11-02T13:33:29.132Z,29.92
2022-11-02T13:35:59.560Z,28.45
2022-11-02T13:38:35.885Z,23.33
2022-11-02T13:41:04.079Z,29.92
2022-11-02T13:43:31.984Z,48.10
2022-11-02T13:46:16.221Z,31.27
2022-11-02T13:49:04.993Z,34.88
2022-11-02T13:51:40.763Z,37.72
2022-11-02T13:54:26.612Z,31.25
2022-11-02T13:56:56.894Z,35.10
2022-11-02T13:59:30.122Z,33.38
2022-11-02T14:02:01.101Z,28.17
2022-11-02T14:04:38.673Z,30.95
2022-11-02T14:07:20.062Z,28.25
2022-11-02T14:09:48.426Z,30.70
2022-11-02T14:12:22.386Z,28.88
2022-11-02T14:15:15.641Z,33.83
2022-11-02T14:17:56.609Z,30.73
2022-11-02T14:20:38.470Z,30.80
2022-11-02T14:23:14.744Z,46.47
2022-11-02T14:25:45.963Z,52.13
2022-11-02T14:28:26.018Z,60.28
2022-11-02T14:31:06.785Z,41.40
2022-11-02T14:36:45.697Z,37.60
2022-11-02T14:39:23.847Z,56.08
2022-11-02T14:42:22.754Z,56.00
2022-11-02T14:44:59.873Z,74.30
2022-11-02T14:47:31.886Z,82.93
2022-11-02T14:50:11.600Z,87.82
2022-11-02T14:52:42.376Z,73.30
2022-11-02T14:55:24.378Z,65.65
2022-11-02T14:58:00.911Z,74.03
2022-11-02T15:00:36.860Z,180.27
2022-11-02T15:03:28.094Z,153.13
2022-11-02T15:06:03.246Z,239.57
2022-11-02T15:08:35.792Z,224.60
2022-11-02T15:11:41.188Z,191.80
2022-11-02T15:14:40.133Z,112.45
2022-11-02T15:17:13.746Z,84.72
2022-11-02T15:19:44.100Z,77.75
2022-11-02T15:22:34.716Z,67.50
2022-11-02T15:25:24.377Z,55.03
2022-11-02T15:27:56.532Z,67.10
2022-11-02T15:30:28.579Z,63.92
2022-11-02T15:33:04.174Z,68.95
2022-11-02T15:35:36.158Z,62.38
2022-11-02T15:38:27.939Z,63.40
2022-11-02T15:41:16.354Z,61.88
2022-11-02T15:44:03.029Z,67.20
2022-11-02T15:46:46.881Z,71.18
2022-11-02T15:49:26.895Z,67.00
2022-11-02T15:52:14.055Z,68.25
2022-11-02T15:55:19.431Z,63.72
2022-11-02T15:58:13.468Z,79.65
2022-11-02T16:00:41.551Z,73.90
2022-11-02T16:03:10.887Z,71.07
2022-11-02T16:05:38.579Z,80.45
2022-11-02T16:08:22.611Z,85.65
2022-11-02T16:10:51.787Z,87.28
2022-11-02T16:13:21.165Z,101.88
2022-11-02T16:15:50.042Z,92.82
2022-11-02T16:18:35.067Z,103.00
2022-11-02T16:21:06.480Z,103.30
2022-11-02T16:26:09.639Z,100.40
2022-11-02T16:28:39.208Z,84.47
2022-11-02T16:31:19.395Z,86.30
2022-11-02T16:33:51.697Z,86.70
2022-11-02T16:36:24.381Z,81.65
2022-11-02T16:39:02.359Z,80.70
2022-11-02T16:41:32.958Z,82.80
2022-11-02T16:44:12.203Z,81.63
2022-11-02T16:46:55.706Z,81.32
2022-11-02T16:49:25.747Z,69.55
2022-11-02T16:51:56.927Z,67.93
2022-11-02T16:54:41.862Z,73.68
2022-11-02T16:57:15.701Z,64.65
2022-11-02T16:59:53.945Z,67.60
2022-11-02T17:02:41.584Z,69.70
2022-11-02T17:05:22.107Z,65.25
2022-11-02T17:08:09.668Z,70.70
2022-11-02T17:10:39.286Z,68.20
2022-11-02T17:13:21.916Z,67.60
2022-11-02T17:15:54.154Z,69.20
2022-11-02T17:18:22.163Z,66.90
2022-11-02T17:21:12.570Z,64.13
2022-11-02T17:23:46.602Z,63.35
2022-11-02T17:26:26.091Z,65.35
2022-11-02T17:29:00.828Z,73.00
2022-11-02T17:31:34.858Z,67.18
2022-11-02T17:34:10.328Z,68.82
2022-11-02T17:36:46.657Z,75.78
2022-11-02T17:39:16.791Z,92.70
2022-11-02T17:42:07.594Z,294.40
2022-11-02T17:44:38.266Z,257.27
2022-11-02T17:47:19.393Z,134.30
2022-11-02T17:49:47.436Z,124.10
2022-11-02T17:52:19.333Z,115.38
2022-11-02T17:54:47.580Z,107.53
2022-11-02T17:57:15.867Z,104.45
2022-11-02T17:59:43.986Z,94.15
2022-11-02T18:02:13.720Z,94.20
2022-11-02T18:07:29.917Z,102.38
2022-11-02T18:09:58.025Z,124.15
2022-11-02T18:12:25.969Z,133.23
2022-11-02T18:14:54.076Z,117.03
2022-11-02T18:17:21.774Z,91.80
2022-11-02T18:19:49.873Z,90.55
2022-11-02T18:22:17.608Z,90.10
2022-11-02T18:24:45.724Z,90.35
2022-11-02T18:27:13.437Z,88.15
2022-11-02T18:29:41.560Z,97.72
2022-11-02T18:32:09.442Z,91.88
2022-11-02T18:34:37.705Z,158.30
2022-11-02T18:37:05.993Z,146.85
2022-11-02T18:39:34.067Z,158.38
2022-11-02T18:42:01.868Z,149.23
2022-11-02T18:44:30.102Z,235.13
2022-11-02T18:46:59.525Z,237.38
2022-11-02T18:49:27.649Z,206.93
2022-11-02T18:51:55.438Z,161.75
2022-11-02T18:54:23.543Z,206.90
2022-11-02T18:56:51.280Z,152.65
2022-11-02T18:59:19.393Z,106.75
2022-11-02T19:01:47.422Z,96.25
2022-11-02T19:04:17.626Z,85.72
2022-11-02T19:07:20.369Z,111.65
2022-11-02T19:09:52.689Z,102.45
2022-11-02T19:14:52.926Z,98.03
2022-11-02T19:17:22.733Z,105.63
2022-11-02T19:19:52.008Z,86.35
2022-11-02T19:22:22.606Z,90.32
2022-11-02T19:27:23.661Z,84.10
2022-11-02T19:29:52.399Z,90.55
2022-11-02T19:32:20.455Z,79.55
2022-11-02T19:34:48.556Z,76.50
2022-11-02T19:37:16.367Z,82.43
2022-11-02T19:39:44.531Z,113.85
2022-11-02T19:42:12.294Z,146.40
2022-11-02T19:44:42.813Z,160.77
2022-11-02T19:47:11.261Z,132.80
2022-11-02T19:49:39.344Z,159.52
2022-11-02T19:52:07.118Z,136.25
2022-11-02T19:54:38.335Z,129.02
2022-11-02T19:57:06.200Z,116.80
2022-11-02T19:59:35.323Z,121.65
2022-11-02T20:02:03.576Z,104.03
2022-11-02T20:04:41.045Z,110.10
2022-11-02T20:07:10.234Z,119.75
2022-11-02T20:09:38.731Z,165.23
2022-11-02T20:12:07.811Z,156.68
2022-11-02T20:14:38.572Z,236.55
2022-11-02T20:17:29.704Z,140.30
2022-11-02T20:19:54.487Z,130.88
2022-11-02T20:22:22.621Z,91.88
2022-11-02T20:24:51.185Z,77.93
2022-11-02T20:27:19.049Z,72.75
2022-11-02T20:29:48.401Z,70.20
2022-11-02T20:32:20.488Z,69.25
2022-11-02T20:34:48.550Z,69.50
2022-11-02T20:37:16.351Z,69.30
2022-11-02T20:39:44.493Z,72.38
2022-11-02T20:42:12.281Z,81.80
2022-11-02T20:44:40.409Z,80.38
2022-11-02T20:47:08.102Z,82.47
2022-11-02T20:49:49.923Z,66.07
2022-11-02T20:52:22.216Z,66.13
2022-11-02T20:54:50.587Z,63.40
2022-11-02T20:57:18.458Z,63.10
2022-11-02T20:59:46.695Z,65.20
2022-11-02T21:02:14.563Z,61.05
2022-11-02T21:04:43.499Z,65.47
2022-11-02T21:07:11.252Z,62.92
2022-11-02T21:09:39.485Z,61.90
2022-11-02T21:12:28.346Z,63.80
2022-11-02T21:14:56.692Z,50.40
2022-11-02T21:17:24.723Z,53.63
2022-11-02T21:20:02.793Z,51.15
2022-11-02T21:22:36.537Z,51.33
2022-11-02T21:25:04.785Z,53.17
2022-11-02T21:27:32.540Z,52.20
2022-11-02T21:30:00.714Z,52.40
2022-11-02T21:32:28.385Z,52.22
2022-11-02T21:34:57.426Z,47.90
2022-11-02T21:37:25.116Z,49.67
2022-11-02T21:39:53.287Z,45.67
2022-11-02T21:42:21.896Z,44.35
2022-11-02T21:44:50.003Z,47.53
2022-11-02T21:47:17.860Z,44.40
2022-11-02T21:49:46.181Z,49.53
2022-11-02T21:52:14.049Z,45.03
2022-11-02T21:54:42.123Z,44.92
2022-11-02T21:57:11.073Z,51.13
2022-11-02T21:59:41.998Z,43.30
2022-11-02T22:02:10.362Z,42.40
2022-11-02T22:04:38.730Z,48.53
2022-11-02T22:07:08.866Z,39.90
2022-11-02T22:09:37.107Z,36.13
2022-11-02T22:12:24.900Z,38.03
2022-11-02T22:14:53.305Z,44.47
2022-11-02T22:17:47.893Z,35.10
2022-11-02T22:20:10.286Z,36.10
2022-11-02T22:22:38.380Z,29.67
2022-11-02T22:27:37.298Z,34.25
2022-11-02T22:30:06.057Z,29.08
2022-11-02T22:32:34.470Z,26.55
2022-11-02T22:35:02.532Z,28.63
2022-11-02T22:37:49.460Z,31.80
2022-11-02T22:40:18.028Z,24.38
2022-11-02T22:42:45.746Z,30.60
2022-11-02T22:45:13.937Z,28.63
2022-11-02T22:47:41.720Z,28.70
2022-11-02T22:50:11.700Z,29.33
2022-11-02T22:52:42.549Z,30.20
2022-11-02T22:55:10.767Z,28.05
2022-11-02T22:57:41.508Z,24.85
2022-11-02T23:00:10.563Z,23.42
2022-11-02T23:02:38.328Z,27.88
2022-11-02T23:05:06.805Z,26.88
2022-11-02T23:07:34.546Z,25.58
2022-11-02T23:10:22.572Z,24.65
2022-11-02T23:12:50.495Z,21.45
2022-11-02T23:15:18.538Z,28.63
2022-11-02T23:17:48.767Z,30.63
2022-11-02T23:20:16.927Z,29.77
2022-11-02T23:22:44.985Z,39.72
2022-11-02T23:25:20.216Z,41.50
2022-11-02T23:28:13.643Z,35.05
2022-11-02T23:31:00.963Z,30.15
2022-11-02T23:33:31.291Z,24.10
2022-11-02T23:36:13.430Z,29.90
2022-11-02T23:39:05.397Z,27.45
2022-11-02T23:41:35.860Z,22.55
2022-11-02T23:44:14.029Z,28.90
2022-11-02T23:46:44.012Z,28.77
2022-11-02T23:49:13.175Z,22.40
2022-11-02T23:52:00.691Z,24.27
2022-11-02T23:54:46.802Z,23.90
2022-11-02T23:57:14.961Z,19.55
2022-11-02T23:59:45.903Z,29.10
